Almond, New York
Current Conditions -  °F | °C
As of 11:54 AM on Sunday 23 Nov 2014 (Local Time) from KDSV Reporting Station
Overcast Overcast  
Wind Chill: 51°   Ceiling: 4700
Heat Index: 51°   Visibility: 10mi
Dew Point: 38°   Wind: 6mph
Humidity: 61%   Direction: NA
Pressure: 30.06"   Gusts: NA
Location:  42.32°N, 77.74°W
Report Text: KDSV 231654Z AUTO VRB05KT 10SM BKN047 OVC060 11/03 A3006 RMK AO2 SLP190 T01060033
Loading
Personal Weather Stations






























Interactive Weather Map New forecast layout! Learn more

10-Day Weather Forecast

Advertisements
Track Severe Weather on mobile